Tulsa, OK (74120)

7:04 PM CDT on May 27, 2017 (GMT -0500)
Cherry Street | | Change Station
Active Advisory: Tornado Watch

Elev 743 ft 36.14 °N, 95.97 °W | Updated 46 seconds ago

Partly Cloudy
Partly Cloudy
86.9 °F
Feels Like 100 °F
N
3.0
Wind Variable Wind from South
Gusts 13.0 mph

Today
High -- | Low -- °F
--% Chance of Precip.
Yesterday
High -- | Low -- °F
Precip. -- in
Pressure 29.64 in
Visibility 9.0 miles
Clouds Scattered Clouds 3000 ft
Scattered Clouds 20000 ft
Mostly Cloudy 25000 ft
Heat Index 100 °F
Dew Point 78 °F
Humidity 76%
Rainfall Not available.
Snow Depth Not available.
6:10 AM 8:32 PM
Waxing Crescent, 7% visible
METAR KTUL 272353Z 21008G17KT 9SM SCT030 SCT200 BKN250 31/26 A2966 RMK AO2 WSHFT 2245 LTG DSNT N RAE01B37E50 TSE06B12E28 SLP035 CB DSNT E AND NW-N MOV E P0001 60002 T03060261 10339 20306 58004
Pressure 29.64 in
Visibility 9.0 miles
Clouds Scattered Clouds 3000 ft
Scattered Clouds 20000 ft
Mostly Cloudy 25000 ft
Heat Index 100 °F
Dew Point 78 °F
Humidity 76%
Rainfall Not available.
Snow Depth Not available.
6:10 AM 8:32 PM
Waxing Crescent, 7% visible
METAR KTUL 272353Z 21008G17KT 9SM SCT030 SCT200 BKN250 31/26 A2966 RMK AO2 WSHFT 2245 LTG DSNT N RAE01B37E50 TSE06B12E28 SLP035 CB DSNT E AND NW-N MOV E P0001 60002 T03060261 10339 20306 58004

Get Your Daily Forecast Email!

Thanks for signing up!

Be on the lookout for a verification email in your inbox.

You'll start receiving severe weather alerts in your inbox..

×

10-Day Weather Forecast

Almanac

Astronomy

May. 27, 2017 Rise Set
Actual Time
Civil Twilight
Nautical Twilight
Astronomical Twilight
Moon
Length of Visible Light
Length of Day
Tomorrow will be .
, % of the Moon is Illuminated

Today's Extremes

State Highs State Lows

Community

WunderPhotos

Category 6

Welcome to Category 6. This is the collective home for Weather Underground's featured writeups by Dr. Jeff Masters (right), Bob Henson (left), Chris Burt, and other regular contributors.

Nearby

Air Quality

  Air Quality AQ Index Pollutant
Not available.

Snow Depth

Station Depth Elevation

Earthquake Activity

City Distance Mag. Time & Date
Minimum magnitude displayed is 2.5.

Coastal Water Temperatures

Place Temperature

Stations

Nearby Weather Stations

Station Location Temp. Windchill Dew Point Humidity Wind Precip. Elev Updated Type
                   

Watches & Warnings

Tornado Watch
Issued: 6:43 PM CDT May. 27, 2017 – National Weather Service

Tornado Watch 279 remains in effect until 1200 am CDT for the
following locations

OK
. Oklahoma counties included are

Adair Atoka Bryan
Carter Cherokee Choctaw
Cleveland Coal Craig
creek Delaware Garvin
Haskell Hughes Johnston
Latimer Le Flore Lincoln
Logan Love McClain
McIntosh Marshall Mayes
Murray Muskogee Nowata
Okfuskee Oklahoma Okmulgee
Osage Ottawa Pawnee
Payne Pittsburg Pontotoc
Pottawatomie Pushmataha Rogers
Seminole Sequoyah Tulsa
Wagoner Washington